Time;durP1;ratioP1;P1;durP2;ratioP2;P2;SDS_P1;SDS_P2;PMS_P1;PMS_P2;Temp;Humidity;BMP_temperature;BMP_pressure;BME280_temperature;BME280_humidity;BME280_pressure;Samples;Min_cycle;Max_cycle;Signal;HPM_P1;HPM_P2
2022/07/18 00:00:59;;;;;;;;;;;;;;;29.83;46.47;99083.59;2105093;28;20440;-72
2022/07/18 00:02:02;;;;;;;;;;;;;;;29.83;46.42;99081.69;2105324;28;19923;-72
2022/07/18 00:03:03;;;;;;;;;;;;;;;29.83;46.80;99087.16;2105317;28;20005;-72
2022/07/18 00:04:04;;;;;;;;;;;;;;;29.83;46.61;99080.88;2099046;28;20487;-73
2022/07/18 00:05:05;;;;;;;;;;;;;;;29.83;47.00;99080.88;2105418;28;19927;-72
2022/07/18 00:06:06;;;;;;;;;;;;;;;29.82;46.49;99081.97;2104275;28;19934;-72
2022/07/18 00:07:07;;;;;;;;;;;;;;;29.82;46.87;99080.06;2102933;28;20030;-72
2022/07/18 00:08:09;;;;;;;;;;;;;;;29.82;46.67;99073.78;2103488;28;20129;-73
2022/07/18 00:09:09;;;;;;;;;;;;;;;29.82;46.46;99079.25;2103351;28;20255;-72
2022/07/18 00:10:11;;;;;;;;;;;;;;;29.81;46.36;99077.56;2104424;28;19927;-72
2022/07/18 00:11:11;;;;;;;;;;;;;;;29.81;46.49;99083.88;2100756;28;19932;-72
2022/07/18 00:12:14;;;;;;;;;;;;;;;29.82;46.75;99084.69;2103369;28;20644;-72
2022/07/18 00:13:15;;;;;;;;;;;;;;;29.81;46.83;99078.41;2102922;28;19935;-72
2022/07/18 00:14:16;;;;;;;;;;;;;;;29.83;46.81;99072.66;2102666;28;19934;-72
2022/07/18 00:15:19;;;;;;;;;;;;;;;29.83;46.55;99075.41;2103331;28;20236;-73
2022/07/18 00:16:21;;;;;;;;;;;;;;;29.82;46.63;99073.78;2101694;28;20066;-72
2022/07/18 00:17:21;;;;;;;;;;;;;;;29.83;46.66;99075.41;2102982;28;19928;-72
2022/07/18 00:18:23;;;;;;;;;;;;;;;29.82;46.68;99073.78;2101041;28;20011;-72
2022/07/18 00:19:23;;;;;;;;;;;;;;;29.83;47.09;99069.94;2103838;28;20534;-73
2022/07/18 00:20:26;;;;;;;;;;;;;;;29.84;46.48;99079.81;2104217;28;20369;-72
2022/07/18 00:21:26;;;;;;;;;;;;;;;29.81;46.64;99070.22;2103719;28;20405;-72
2022/07/18 00:22:28;;;;;;;;;;;;;;;29.82;46.68;99068.31;2103479;28;19931;-72
2022/07/18 00:23:29;;;;;;;;;;;;;;;29.81;46.74;99072.94;2100407;28;19928;-72
2022/07/18 00:24:31;;;;;;;;;;;;;;;29.83;46.64;99061.72;2101609;28;20288;-72
2022/07/18 00:25:32;;;;;;;;;;;;;;;29.82;46.58;99062.84;2103523;28;19928;-72
2022/07/18 00:26:33;;;;;;;;;;;;;;;29.82;46.86;99073.78;2099378;28;20293;-72
2022/07/18 00:27:35;;;;;;;;;;;;;;;29.82;46.63;99066.38;2103981;28;19939;-72
2022/07/18 00:28:37;;;;;;;;;;;;;;;29.83;46.72;99065.28;2103920;28;19932;-72
2022/07/18 00:29:38;;;;;;;;;;;;;;;29.83;46.87;99072.66;2102620;28;19947;-72
2022/07/18 00:30:40;;;;;;;;;;;;;;;29.84;46.69;99074.34;2102352;28;20656;-73
2022/07/18 00:31:41;;;;;;;;;;;;;;;29.82;46.59;99073.78;2099205;28;20712;-72
2022/07/18 00:32:43;;;;;;;;;;;;;;;29.81;46.77;99072.94;2103847;28;20277;-72
2022/07/18 00:33:43;;;;;;;;;;;;;;;29.83;46.58;99067.19;2103899;28;19957;-72
2022/07/18 00:34:45;;;;;;;;;;;;;;;29.83;46.99;99075.41;2105683;28;19951;-72
2022/07/18 00:35:45;;;;;;;;;;;;;;;29.82;46.75;99071.03;2105143;28;19939;-72
2022/07/18 00:36:47;;;;;;;;;;;;;;;29.83;46.80;99072.66;2103149;28;19927;-72
2022/07/18 00:37:49;;;;;;;;;;;;;;;29.83;46.81;99075.41;2101175;28;20279;-72
2022/07/18 00:38:49;;;;;;;;;;;;;;;29.83;46.83;99064.47;2102483;28;20378;-72
2022/07/18 00:39:51;;;;;;;;;;;;;;;29.83;46.85;99070.75;2101221;28;19924;-72
2022/07/18 00:40:51;;;;;;;;;;;;;;;29.84;46.65;99077.06;2101983;28;20373;-72
2022/07/18 00:41:53;;;;;;;;;;;;;;;29.83;46.84;99072.66;2103116;28;19934;-72
2022/07/18 00:42:55;;;;;;;;;;;;;;;29.83;47.05;99069.94;2101757;28;19924;-72
2022/07/18 00:43:57;;;;;;;;;;;;;;;29.82;47.09;99071.03;2103146;28;19974;-72
2022/07/18 00:44:58;;;;;;;;;;;;;;;29.82;47.05;99066.38;2101989;28;19992;-72
2022/07/18 00:45:59;;;;;;;;;;;;;;;29.83;46.78;99078.13;2103440;28;20397;-72
2022/07/18 00:47:00;;;;;;;;;;;;;;;29.82;46.71;99079.25;2100970;28;20033;-72
2022/07/18 00:48:05;;;;;;;;;;;;;;;29.82;47.10;99071.03;2102549;28;19988;-72
2022/07/18 00:49:06;;;;;;;;;;;;;;;29.83;46.86;99075.41;2101900;28;20376;-72
2022/07/18 00:50:08;;;;;;;;;;;;;;;29.81;46.93;99075.69;2101024;28;19934;-72
2022/07/18 00:51:09;;;;;;;;;;;;;;;29.82;46.99;99065.56;2099530;28;19927;-72
2022/07/18 00:52:10;;;;;;;;;;;;;;;29.82;46.93;99073.78;2102876;28;20536;-72
2022/07/18 00:53:11;;;;;;;;;;;;;;;29.81;46.88;99078.41;2104293;28;24531;-72
2022/07/18 00:54:13;;;;;;;;;;;;;;;29.81;47.07;99064.75;2106178;28;20015;-72
2022/07/18 00:55:13;;;;;;;;;;;;;;;29.82;47.07;99062.84;2104916;28;19946;-73
2022/07/18 00:56:17;;;;;;;;;;;;;;;29.82;47.38;99063.66;2103538;28;20701;-72
2022/07/18 00:57:18;;;;;;;;;;;;;;;29.82;46.96;99062.84;2102021;28;19928;-72
2022/07/18 00:58:21;;;;;;;;;;;;;;;29.82;46.99;99071.03;2101482;28;19969;-71
2022/07/18 00:59:22;;;;;;;;;;;;;;;29.81;46.95;99072.09;2098755;28;19935;-72
2022/07/18 01:01:47;;;;;;;;;;;;;;;29.81;46.95;99070.22;2106204;28;20433;-72
2022/07/18 01:02:48;;;;;;;;;;;;;;;29.82;46.92;99079.25;2107466;28;20187;-73
2022/07/18 01:03:49;;;;;;;;;;;;;;;29.81;47.27;99074.84;2105676;28;19923;-72
2022/07/18 01:04:50;;;;;;;;;;;;;;;29.82;46.92;99062.84;2100112;28;19927;-72
2022/07/18 01:05:51;;;;;;;;;;;;;;;29.82;46.91;99066.38;2102292;28;19927;-71
2022/07/18 01:06:53;;;;;;;;;;;;;;;29.81;47.09;99067.47;2103389;28;20373;-72
2022/07/18 01:07:53;;;;;;;;;;;;;;;29.81;46.75;99061.16;2101514;28;20281;-72
2022/07/18 01:08:55;;;;;;;;;;;;;;;29.80;47.34;99071.28;2104293;28;19928;-72
2022/07/18 01:09:55;;;;;;;;;;;;;;;29.82;47.36;99062.84;2100880;28;19923;-72
2022/07/18 01:10:57;;;;;;;;;;;;;;;29.81;47.44;99069.38;2101129;28;20324;-73
2022/07/18 01:11:58;;;;;;;;;;;;;;;29.83;47.40;99075.41;2103051;28;20019;-72
2022/07/18 01:13:00;;;;;;;;;;;;;;;29.81;47.18;99069.38;2102465;28;19931;-73
2022/07/18 01:14:03;;;;;;;;;;;;;;;29.80;46.89;99060.34;2103454;28;19928;-72
2022/07/18 01:15:05;;;;;;;;;;;;;;;29.81;46.96;99072.09;2100285;28;19976;-72
2022/07/18 01:16:06;;;;;;;;;;;;;;;29.81;47.23;99069.38;2099764;28;19938;-72
2022/07/18 01:17:18;;;;;;;;;;;;;;;29.81;47.13;99062.00;2104899;28;19931;-72
2022/07/18 01:18:19;;;;;;;;;;;;;;;29.80;47.28;99063.09;2099608;28;20031;-72
2022/07/18 01:19:20;;;;;;;;;;;;;;;29.81;47.18;99061.16;2100766;28;20426;-72
2022/07/18 01:20:21;;;;;;;;;;;;;;;29.81;47.42;99069.38;2102574;28;20410;-72
2022/07/18 01:21:24;;;;;;;;;;;;;;;29.81;47.37;99069.38;2105745;28;19946;-72
2022/07/18 01:22:25;;;;;;;;;;;;;;;29.80;47.10;99070.47;2102878;28;19939;-72
2022/07/18 01:23:27;;;;;;;;;;;;;;;29.80;47.07;99071.28;2100083;28;19931;-72
2022/07/18 01:24:27;;;;;;;;;;;;;;;29.80;47.14;99062.28;2099607;28;20485;-72
2022/07/18 01:25:29;;;;;;;;;;;;;;;29.81;47.18;99069.38;2101129;28;19950;-72
2022/07/18 01:26:30;;;;;;;;;;;;;;;29.81;47.20;99072.09;2098284;28;19931;-72
2022/07/18 01:27:31;;;;;;;;;;;;;;;29.80;47.22;99071.28;2102829;28;20643;-72
2022/07/18 01:28:32;;;;;;;;;;;;;;;29.80;47.22;99060.34;2103457;28;19939;-72
2022/07/18 01:29:33;;;;;;;;;;;;;;;29.81;47.29;99072.94;2103470;28;19923;-72
2022/07/18 01:30:34;;;;;;;;;;;;;;;29.80;47.32;99068.56;2099622;28;23354;-72
2022/07/18 01:31:35;;;;;;;;;;;;;;;29.80;47.32;99056.81;2100515;28;19935;-72
2022/07/18 01:32:36;;;;;;;;;;;;;;;29.81;46.89;99061.16;2104653;28;20338;-72
2022/07/18 01:33:38;;;;;;;;;;;;;;;29.80;47.32;99062.28;2099870;28;20041;-72
2022/07/18 01:34:39;;;;;;;;;;;;;;;29.82;47.43;99062.84;2101971;28;20011;-72
2022/07/18 01:35:41;;;;;;;;;;;;;;;29.81;47.16;99061.16;2103836;28;20026;-72
2022/07/18 01:36:43;;;;;;;;;;;;;;;29.80;47.44;99060.34;2103947;28;19927;-72
2022/07/18 01:37:44;;;;;;;;;;;;;;;29.80;47.23;99060.34;2105185;28;19928;-73
2022/07/18 01:38:45;;;;;;;;;;;;;;;29.80;47.52;99065.00;2102130;28;20362;-72
2022/07/18 01:39:46;;;;;;;;;;;;;;;29.79;47.11;99058.72;2098674;28;22194;-72
2022/07/18 01:40:47;;;;;;;;;;;;;;;29.80;47.72;99067.72;2104012;28;20159;-72
2022/07/18 01:41:55;;;;;;;;;;;;;;;29.79;47.37;99068.84;2103718;28;19927;-72
2022/07/18 01:42:55;;;;;;;;;;;;;;;29.79;47.50;99063.38;2101418;28;19939;-72
2022/07/18 01:43:57;;;;;;;;;;;;;;;29.79;47.28;99063.38;2101917;28;20113;-72
2022/07/18 01:44:58;;;;;;;;;;;;;;;29.78;47.42;99062.56;2104525;28;19924;-72
2022/07/18 01:45:59;;;;;;;;;;;;;;;29.78;47.52;99067.16;2101182;28;19932;-72
2022/07/18 01:47:00;;;;;;;;;;;;;;;29.78;47.58;99070.75;2100842;28;20962;-72
2022/07/18 01:48:02;;;;;;;;;;;;;;;29.78;47.22;99064.44;2099861;28;20065;-72
2022/07/18 01:49:02;;;;;;;;;;;;;;;29.79;47.27;99066.91;2099987;28;19960;-72
2022/07/18 01:50:04;;;;;;;;;;;;;;;29.79;47.29;99063.38;2101865;28;21840;-72
2022/07/18 01:51:09;;;;;;;;;;;;;;;29.78;47.32;99064.44;2100219;27;19932;-72
2022/07/18 01:52:12;;;;;;;;;;;;;;;29.80;47.09;99065.00;2103297;28;19932;-72
2022/07/18 01:53:13;;;;;;;;;;;;;;;29.78;47.18;99068.03;2105234;28;19924;-71
2022/07/18 01:54:15;;;;;;;;;;;;;;;29.79;47.38;99069.66;2107590;27;19963;-71
2022/07/18 01:55:15;;;;;;;;;;;;;;;29.79;47.29;99068.84;2106966;28;19938;-72
2022/07/18 01:56:17;;;;;;;;;;;;;;;29.78;47.34;99068.03;2105001;28;19932;-72
2022/07/18 01:57:17;;;;;;;;;;;;;;;29.78;47.67;99065.28;2098959;28;20324;-72
2022/07/18 01:58:19;;;;;;;;;;;;;;;29.79;47.32;99075.13;2102198;28;19938;-72
2022/07/18 01:59:20;;;;;;;;;;;;;;;29.78;47.64;99067.16;2104995;28;19947;-71
2022/07/18 02:00:21;;;;;;;;;;;;;;;29.78;47.31;99075.38;2103601;28;20364;-71
2022/07/18 02:01:22;;;;;;;;;;;;;;;29.78;47.05;99069.91;2102280;28;19938;-71
2022/07/18 02:02:23;;;;;;;;;;;;;;;29.78;47.38;99072.63;2105796;28;19939;-72
2022/07/18 02:03:24;;;;;;;;;;;;;;;29.78;47.38;99072.63;2103291;28;20337;-71
2022/07/18 02:04:59;;;;;;;;;;;;;;;29.77;47.45;99071.81;2100540;28;19935;-71
2022/07/18 02:05:46;;;;;;;;;;;;;;;29.76;47.61;99075.66;2101607;28;19936;-72
2022/07/18 02:06:48;;;;;;;;;;;;;;;29.76;47.87;99075.66;2102609;28;20357;-72
2022/07/18 02:07:50;;;;;;;;;;;;;;;29.75;48.06;99078.66;2105145;28;19932;-71
2022/07/18 02:08:51;;;;;;;;;;;;;;;29.75;47.75;99067.72;2102780;28;20034;-71
2022/07/18 02:09:52;;;;;;;;;;;;;;;29.76;47.47;99080.31;2102385;28;19943;-71
2022/07/18 02:10:54;;;;;;;;;;;;;;;29.77;47.13;99079.22;2104409;28;19947;-71
2022/07/18 02:11:54;;;;;;;;;;;;;;;29.77;47.45;99076.47;2104248;28;20003;-72
2022/07/18 02:12:56;;;;;;;;;;;;;;;29.77;47.18;99071.00;2104702;28;19928;-72
2022/07/18 02:13:57;;;;;;;;;;;;;;;29.77;47.26;99071.00;2105936;28;19924;-72
2022/07/18 02:14:58;;;;;;;;;;;;;;;29.77;47.19;99077.28;2100672;28;20311;-72
2022/07/18 02:16:00;;;;;;;;;;;;;;;29.79;47.32;99074.31;2104046;28;20419;-72
2022/07/18 02:17:02;;;;;;;;;;;;;;;29.78;47.38;99072.63;2099836;28;19934;-72
2022/07/18 02:18:02;;;;;;;;;;;;;;;29.77;47.23;99074.56;2101151;28;20373;-72
2022/07/18 02:19:04;;;;;;;;;;;;;;;29.77;47.32;99066.34;2100373;28;19927;-72
2022/07/18 02:20:06;;;;;;;;;;;;;;;29.78;47.31;99069.91;2099451;28;19949;-72
2022/07/18 02:21:08;;;;;;;;;;;;;;;29.78;47.30;99069.91;2101000;28;19928;-71
2022/07/18 02:22:09;;;;;;;;;;;;;;;29.78;47.09;99072.63;2101170;28;19924;-72
2022/07/18 02:23:12;;;;;;;;;;;;;;;29.77;47.23;99069.09;2097618;28;19931;-71
2022/07/18 02:24:12;;;;;;;;;;;;;;;29.77;47.09;99071.81;2101852;28;20098;-72
2022/07/18 02:25:14;;;;;;;;;;;;;;;29.78;47.05;99073.50;2101179;28;20014;-72
2022/07/18 02:26:15;;;;;;;;;;;;;;;29.77;47.20;99069.09;2099561;28;19930;-72
2022/07/18 02:27:16;;;;;;;;;;;;;;;29.78;47.03;99072.63;2097171;28;20414;-71
2022/07/18 02:28:17;;;;;;;;;;;;;;;29.78;47.03;99067.16;2102024;28;19934;-71
2022/07/18 02:29:19;;;;;;;;;;;;;;;29.78;47.15;99070.75;2102570;28;19932;-72
2022/07/18 02:30:20;;;;;;;;;;;;;;;29.77;47.20;99069.09;2103931;28;20082;-72
2022/07/18 02:31:23;;;;;;;;;;;;;;;29.79;47.17;99068.84;2101662;28;20510;-72
2022/07/18 02:32:23;;;;;;;;;;;;;;;29.77;47.33;99065.53;2102443;28;19928;-72
2022/07/18 02:33:25;;;;;;;;;;;;;;;29.77;47.60;99069.09;2100031;28;20331;-71
2022/07/18 02:34:26;;;;;;;;;;;;;;;29.75;48.08;99071.25;2104825;28;19934;-72
2022/07/18 02:35:27;;;;;;;;;;;;;;;29.74;47.75;99066.06;2101738;28;19928;-72
2022/07/18 02:36:28;;;;;;;;;;;;;;;29.75;48.20;99065.78;2101059;28;19958;-72
2022/07/18 02:37:29;;;;;;;;;;;;;;;29.73;47.93;99073.47;2103113;28;19940;-72
2022/07/18 02:38:31;;;;;;;;;;;;;;;29.74;47.97;99066.06;2102435;28;20650;-72
2022/07/18 02:39:33;;;;;;;;;;;;;;;29.72;48.20;99068.25;2102127;28;19970;-72
2022/07/18 02:40:34;;;;;;;;;;;;;;;29.73;47.98;99067.19;2100155;28;19950;-71
2022/07/18 02:41:36;;;;;;;;;;;;;;;29.72;47.94;99062.78;2101840;28;20027;-72
2022/07/18 02:42:37;;;;;;;;;;;;;;;29.71;47.79;99067.44;2102502;28;19989;-71
2022/07/18 02:43:38;;;;;;;;;;;;;;;29.72;48.16;99065.50;2102796;28;20991;-72
2022/07/18 02:44:39;;;;;;;;;;;;;;;29.72;47.90;99069.06;2105227;28;19950;-72
2022/07/18 02:45:40;;;;;;;;;;;;;;;29.72;47.90;99073.72;2101155;28;19928;-71
2022/07/18 02:46:41;;;;;;;;;;;;;;;29.73;48.13;99072.66;2098563;28;19935;-71
2022/07/18 02:47:43;;;;;;;;;;;;;;;29.71;48.08;99067.44;2102727;28;20145;-72
2022/07/18 02:48:43;;;;;;;;;;;;;;;29.71;47.93;99074.81;2099455;28;19924;-72
2022/07/18 02:49:45;;;;;;;;;;;;;;;29.72;47.93;99073.72;2099988;28;19927;-71
2022/07/18 02:50:45;;;;;;;;;;;;;;;29.72;47.75;99068.25;2100169;28;19954;-72
2022/07/18 02:51:47;;;;;;;;;;;;;;;29.72;48.15;99071.78;2102868;28;19951;-72
2022/07/18 02:52:47;;;;;;;;;;;;;;;29.71;47.88;99075.63;2102293;28;20027;-71
2022/07/18 02:53:50;;;;;;;;;;;;;;;29.73;48.00;99075.38;2105692;28;20081;-72
2022/07/18 02:54:52;;;;;;;;;;;;;;;29.73;47.82;99086.31;2102615;28;19928;-72
2022/07/18 02:55:53;;;;;;;;;;;;;;;29.71;48.19;99075.63;2100278;28;19934;-71
2022/07/18 02:56:54;;;;;;;;;;;;;;;29.71;48.26;99074.81;2101730;28;20275;-71
2022/07/18 02:57:55;;;;;;;;;;;;;;;29.70;48.27;99071.25;2101305;28;19939;-72
2022/07/18 02:58:56;;;;;;;;;;;;;;;29.70;48.13;99071.25;2099845;28;20019;-72
2022/07/18 02:59:57;;;;;;;;;;;;;;;29.70;48.02;99076.72;2101163;28;19938;-72
2022/07/18 03:00:59;;;;;;;;;;;;;;;29.71;47.99;99069.34;2099738;28;19978;-71
2022/07/18 03:01:59;;;;;;;;;;;;;;;29.70;48.00;99076.72;2100460;28;19940;-72
2022/07/18 03:03:01;;;;;;;;;;;;;;;29.71;47.97;99072.09;2098238;28;19928;-71
2022/07/18 03:04:02;;;;;;;;;;;;;;;29.70;48.19;99073.16;2100078;28;19994;-71
2022/07/18 03:05:04;;;;;;;;;;;;;;;29.70;47.94;99076.72;2101855;28;19943;-72
2022/07/18 03:06:05;;;;;;;;;;;;;;;29.71;47.92;99072.09;2097304;28;19928;-72
2022/07/18 03:07:06;;;;;;;;;;;;;;;29.71;48.01;99072.09;2100295;28;19950;-72
2022/07/18 03:08:07;;;;;;;;;;;;;;;29.70;47.91;99067.69;2104765;28;19931;-71
2022/07/18 03:09:10;;;;;;;;;;;;;;;29.71;48.08;99072.09;2101315;28;19938;-72
2022/07/18 03:10:12;;;;;;;;;;;;;;;29.71;48.20;99072.09;2103741;28;19928;-71
2022/07/18 03:11:12;;;;;;;;;;;;;;;29.70;47.66;99070.41;2105040;28;19928;-71
2022/07/18 03:12:14;;;;;;;;;;;;;;;29.70;48.15;99064.94;2102090;28;20732;-71
2022/07/18 03:13:14;;;;;;;;;;;;;;;29.70;48.23;99075.88;2099308;28;19995;-71
2022/07/18 03:14:16;;;;;;;;;;;;;;;29.70;48.19;99064.94;2102311;28;19928;-72
2022/07/18 03:15:16;;;;;;;;;;;;;;;29.70;47.78;99067.69;2100125;28;19934;-72
2022/07/18 03:16:18;;;;;;;;;;;;;;;29.70;48.14;99067.69;2101538;28;20464;-71
2022/07/18 03:17:19;;;;;;;;;;;;;;;29.71;48.06;99069.34;2102255;28;19928;-71
2022/07/18 03:18:22;;;;;;;;;;;;;;;29.69;47.93;99069.59;2107714;28;19988;-72
2022/07/18 03:19:22;;;;;;;;;;;;;;;29.70;47.80;99070.41;2102741;27;19932;-71
2022/07/18 03:20:24;;;;;;;;;;;;;;;29.70;47.70;99065.78;2104275;28;20949;-71
2022/07/18 03:21:24;;;;;;;;;;;;;;;29.70;47.72;99068.53;2100891;28;20404;-71
2022/07/18 03:22:26;;;;;;;;;;;;;;;29.71;47.98;99072.09;2100412;28;19931;-71
2022/07/18 03:23:27;;;;;;;;;;;;;;;29.70;47.86;99065.78;2098221;28;19955;-72
2022/07/18 03:24:30;;;;;;;;;;;;;;;29.71;47.79;99072.09;2098199;28;20171;-71
2022/07/18 03:25:31;;;;;;;;;;;;;;;29.71;47.84;99066.63;2100736;28;19932;-71
2022/07/18 03:26:34;;;;;;;;;;;;;;;29.70;48.01;99067.69;2089440;28;20866;-71
2022/07/18 03:27:35;;;;;;;;;;;;;;;29.69;48.11;99074.25;2094238;28;20316;-71
2022/07/18 03:28:36;;;;;;;;;;;;;;;29.70;47.91;99075.88;2101016;28;19957;-71
2022/07/18 03:29:38;;;;;;;;;;;;;;;29.70;47.85;99065.78;2103962;28;20461;-71
2022/07/18 03:30:38;;;;;;;;;;;;;;;29.70;47.72;99071.25;2102200;28;19928;-71
2022/07/18 03:31:40;;;;;;;;;;;;;;;29.71;47.64;99066.63;2104106;28;19928;-72
2022/07/18 03:32:41;;;;;;;;;;;;;;;29.70;47.57;99065.78;2100432;28;19950;-72
2022/07/18 03:33:43;;;;;;;;;;;;;;;29.71;47.36;99066.63;2103981;28;19927;-72
2022/07/18 03:34:43;;;;;;;;;;;;;;;29.70;47.42;99067.69;2100799;28;20416;-71
2022/07/18 03:35:45;;;;;;;;;;;;;;;29.72;47.35;99073.72;2101592;28;19927;-72
2022/07/18 03:36:47;;;;;;;;;;;;;;;29.70;47.36;99068.53;2100509;28;20026;-71
2022/07/18 03:37:47;;;;;;;;;;;;;;;29.71;47.33;99070.16;2098309;28;19951;-72
2022/07/18 03:38:49;;;;;;;;;;;;;;;29.71;47.07;99070.16;2101422;28;19928;-71
2022/07/18 03:39:51;;;;;;;;;;;;;;;29.71;47.24;99066.63;2101482;28;20498;-71
2022/07/18 03:40:52;;;;;;;;;;;;;;;29.72;47.19;99068.25;2100250;28;20051;-71
2022/07/18 03:41:53;;;;;;;;;;;;;;;29.72;47.14;99070.97;2101343;28;19973;-71
2022/07/18 03:42:54;;;;;;;;;;;;;;;29.72;47.23;99073.72;2102423;28;19928;-72
2022/07/18 03:43:55;;;;;;;;;;;;;;;29.72;47.12;99069.06;2103664;28;19934;-72
2022/07/18 03:44:56;;;;;;;;;;;;;;;29.71;46.99;99064.69;2103363;28;20304;-72
2022/07/18 03:45:57;;;;;;;;;;;;;;;29.71;47.22;99067.44;2105402;28;19928;-71
2022/07/18 03:46:59;;;;;;;;;;;;;;;29.72;47.13;99069.06;2099448;28;19927;-72
2022/07/18 03:47:59;;;;;;;;;;;;;;;29.73;47.22;99076.19;2103084;28;20435;-71
2022/07/18 03:49:01;;;;;;;;;;;;;;;29.73;47.15;99081.66;2104701;28;20304;-72
2022/07/18 03:50:02;;;;;;;;;;;;;;;29.71;47.43;99069.34;2101566;28;19928;-71
2022/07/18 03:51:04;;;;;;;;;;;;;;;29.70;47.85;99071.25;2101118;28;19928;-72
2022/07/18 03:52:05;;;;;;;;;;;;;;;29.69;47.67;99077.81;2101250;28;19927;-72
2022/07/18 03:53:07;;;;;;;;;;;;;;;29.68;48.21;99078.09;2103263;28;20020;-71
2022/07/18 03:54:09;;;;;;;;;;;;;;;29.68;48.23;99078.91;2102586;28;20464;-72
2022/07/18 03:55:13;;;;;;;;;;;;;;;29.68;47.85;99078.09;2098447;28;19953;-71
2022/07/18 03:56:13;;;;;;;;;;;;;;;29.68;47.74;99072.63;2101961;28;19977;-71
2022/07/18 03:57:15;;;;;;;;;;;;;;;29.68;47.90;99072.63;2101849;28;20411;-71
2022/07/18 03:58:16;;;;;;;;;;;;;;;29.67;48.19;99071.81;2099645;28;20373;-72
2022/07/18 03:59:17;;;;;;;;;;;;;;;29.68;48.11;99080.81;2102155;28;19927;-72
2022/07/18 04:00:18;;;;;;;;;;;;;;;29.66;48.02;99070.13;2106888;28;19934;-72
2022/07/18 04:01:20;;;;;;;;;;;;;;;29.66;48.16;99061.94;2105967;28;20451;-71
2022/07/18 04:02:21;;;;;;;;;;;;;;;29.67;48.14;99074.53;2105228;28;19924;-72
2022/07/18 04:03:22;;;;;;;;;;;;;;;29.66;47.87;99063.84;2104492;28;20443;-72
2022/07/18 04:04:23;;;;;;;;;;;;;;;29.67;48.10;99077.25;2105198;28;19984;-72
2022/07/18 04:05:25;;;;;;;;;;;;;;;29.66;48.08;99070.13;2103091;28;19931;-72
2022/07/18 04:06:25;;;;;;;;;;;;;;;29.67;48.02;99079.16;2102734;28;19928;-72
2022/07/18 04:07:27;;;;;;;;;;;;;;;29.68;47.81;99078.09;2100637;28;20001;-72
2022/07/18 04:08:27;;;;;;;;;;;;;;;29.67;47.76;99079.16;2102736;28;19935;-72
2022/07/18 04:09:29;;;;;;;;;;;;;;;29.67;47.98;99079.16;2102200;28;19936;-73
2022/07/18 04:10:31;;;;;;;;;;;;;;;29.67;47.71;99081.88;2102222;28;19931;-72
2022/07/18 04:11:33;;;;;;;;;;;;;;;29.67;48.17;99079.16;2102307;28;20001;-72
2022/07/18 04:12:33;;;;;;;;;;;;;;;29.66;48.26;99074.78;2100667;28;19935;-72
2022/07/18 04:13:35;;;;;;;;;;;;;;;29.66;48.17;99081.06;2099385;28;21427;-72
2022/07/18 04:14:36;;;;;;;;;;;;;;;29.66;47.87;99083.81;2103194;28;19931;-72
2022/07/18 04:15:38;;;;;;;;;;;;;;;29.66;47.61;99077.53;2095722;28;19928;-72
2022/07/18 04:16:38;;;;;;;;;;;;;;;29.66;48.29;99081.06;2102012;28;20502;-72
2022/07/18 04:17:40;;;;;;;;;;;;;;;29.66;48.26;99077.53;2098919;28;20316;-72
2022/07/18 04:18:40;;;;;;;;;;;;;;;29.67;47.82;99087.34;2103729;28;19939;-72
2022/07/18 04:19:42;;;;;;;;;;;;;;;29.66;48.19;99086.53;2103069;28;20467;-72
2022/07/18 04:20:42;;;;;;;;;;;;;;;29.66;48.08;99085.72;2102525;28;20365;-72
2022/07/18 04:21:44;;;;;;;;;;;;;;;29.66;48.10;99075.59;2103068;28;19931;-72
2022/07/18 04:22:45;;;;;;;;;;;;;;;29.65;47.79;99084.91;2103038;28;19965;-72
2022/07/18 04:23:47;;;;;;;;;;;;;;;29.64;47.98;99077.78;2097128;28;20396;-72
2022/07/18 04:24:47;;;;;;;;;;;;;;;29.65;48.06;99084.91;2099783;28;19939;-72
2022/07/18 04:25:50;;;;;;;;;;;;;;;29.66;47.96;99085.72;2099052;28;19928;-72
2022/07/18 04:26:51;;;;;;;;;;;;;;;29.65;47.70;99084.91;2100779;28;19935;-72
2022/07/18 04:27:53;;;;;;;;;;;;;;;29.66;48.01;99085.72;2103315;28;20430;-72
2022/07/18 04:28:53;;;;;;;;;;;;;;;29.67;47.79;99085.47;2099871;28;19928;-72
2022/07/18 04:29:55;;;;;;;;;;;;;;;29.66;48.07;99091.19;2101140;28;19959;-72
2022/07/18 04:30:55;;;;;;;;;;;;;;;29.65;48.02;99084.91;2104644;28;20094;-72
2022/07/18 04:31:57;;;;;;;;;;;;;;;29.66;47.96;99088.44;2103296;28;20152;-72
2022/07/18 04:32:58;;;;;;;;;;;;;;;29.67;47.82;99098.28;2102072;28;19927;-72
2022/07/18 04:33:59;;;;;;;;;;;;;;;29.66;47.72;99086.53;2102015;28;20010;-72
2022/07/18 04:35:00;;;;;;;;;;;;;;;29.66;47.67;99091.19;2100563;28;19942;-72
2022/07/18 04:36:01;;;;;;;;;;;;;;;29.67;47.71;99095.56;2102182;28;19998;-72
2022/07/18 04:37:02;;;;;;;;;;;;;;;29.66;47.80;99094.75;2098987;28;20186;-72
2022/07/18 04:38:03;;;;;;;;;;;;;;;29.66;47.65;99091.19;2102743;28;19955;-72
2022/07/18 04:39:04;;;;;;;;;;;;;;;29.66;47.60;99096.66;2102369;28;20188;-72
2022/07/18 04:40:07;;;;;;;;;;;;;;;29.67;47.67;99092.81;2107500;28;19924;-72
2022/07/18 04:41:09;;;;;;;;;;;;;;;29.67;47.66;99095.56;2104201;28;19928;-73
2022/07/18 04:42:10;;;;;;;;;;;;;;;29.67;47.77;99092.81;2105487;28;19940;-72
2022/07/18 04:43:11;;;;;;;;;;;;;;;29.65;47.41;99090.38;2101270;28;20577;-72
2022/07/18 04:44:13;;;;;;;;;;;;;;;29.65;47.81;99100.50;2102955;28;19927;-72
2022/07/18 04:45:13;;;;;;;;;;;;;;;29.66;47.73;99097.47;2101095;28;20327;-72
2022/07/18 04:46:15;;;;;;;;;;;;;;;29.66;47.47;99092.00;2087060;28;20476;-72
2022/07/18 04:47:15;;;;;;;;;;;;;;;29.66;47.47;99093.91;2096637;28;20284;-72
2022/07/18 04:48:17;;;;;;;;;;;;;;;29.67;47.29;99096.41;2101939;28;19938;-72
2022/07/18 04:49:18;;;;;;;;;;;;;;;29.67;47.25;99096.41;2101475;28;19928;-72
2022/07/18 04:50:19;;;;;;;;;;;;;;;29.67;47.37;99095.56;2104147;28;19975;-72
2022/07/18 04:51:20;;;;;;;;;;;;;;;29.66;47.39;99094.75;2104351;28;19935;-72
2022/07/18 04:52:22;;;;;;;;;;;;;;;29.66;47.40;99102.13;2096920;28;19951;-72
2022/07/18 04:53:23;;;;;;;;;;;;;;;29.66;47.22;99100.22;2102744;28;19928;-72
2022/07/18 04:54:24;;;;;;;;;;;;;;;29.67;47.17;99098.28;2101103;28;20476;-72
2022/07/18 04:55:26;;;;;;;;;;;;;;;29.66;47.23;99104.84;2101994;28;20412;-73
2022/07/18 04:56:28;;;;;;;;;;;;;;;29.67;47.23;99101.03;2098737;28;19932;-72
2022/07/18 04:57:30;;;;;;;;;;;;;;;29.67;47.31;99103.75;2102584;28;20004;-72
2022/07/18 04:58:30;;;;;;;;;;;;;;;29.67;47.87;99101.03;2102143;28;20012;-72
2022/07/18 04:59:32;;;;;;;;;;;;;;;29.64;47.80;99105.09;2102189;28;20400;-73
2022/07/18 05:00:32;;;;;;;;;;;;;;;29.64;48.26;99105.09;2102436;28;19935;-72
2022/07/18 05:01:35;;;;;;;;;;;;;;;29.64;48.05;99101.56;2103526;28;19955;-72
2022/07/18 05:02:38;;;;;;;;;;;;;;;29.64;48.33;99107.03;2103533;28;19928;-72
2022/07/18 05:03:39;;;;;;;;;;;;;;;29.62;48.13;99102.63;2102640;28;20239;-72
2022/07/18 05:04:40;;;;;;;;;;;;;;;29.63;47.97;99098.00;2101931;28;20357;-72
2022/07/18 05:05:42;;;;;;;;;;;;;;;29.63;47.74;99100.75;2097702;28;19981;-72
2022/07/18 05:06:42;;;;;;;;;;;;;;;29.64;47.90;99098.81;2103038;28;20075;-71
2022/07/18 05:07:45;;;;;;;;;;;;;;;29.62;48.20;99097.16;2102752;28;20520;-72
2022/07/18 05:08:47;;;;;;;;;;;;;;;29.61;47.96;99106.47;2101024;28;19939;-71
2022/07/18 05:09:47;;;;;;;;;;;;;;;29.62;47.97;99102.63;2105323;28;19924;-72
2022/07/18 05:10:49;;;;;;;;;;;;;;;29.63;47.93;99103.47;2102923;28;19938;-72
2022/07/18 05:11:51;;;;;;;;;;;;;;;29.62;47.83;99105.34;2099404;28;19927;-71
2022/07/18 05:12:53;;;;;;;;;;;;;;;29.62;47.68;99099.06;2102904;28;19932;-72
2022/07/18 05:13:54;;;;;;;;;;;;;;;29.62;47.97;99102.63;2099426;28;20384;-72
2022/07/18 05:14:55;;;;;;;;;;;;;;;29.62;47.76;99105.34;2095474;28;19942;-72
2022/07/18 05:15:56;;;;;;;;;;;;;;;29.62;48.05;99101.81;2099407;28;19928;-71
2022/07/18 05:16:57;;;;;;;;;;;;;;;29.62;48.22;99097.16;2097757;28;21059;-72
2022/07/18 05:17:59;;;;;;;;;;;;;;;29.60;48.05;99098.50;2097922;28;19928;-72
2022/07/18 05:18:59;;;;;;;;;;;;;;;29.60;47.97;99102.06;2103113;28;19942;-71
2022/07/18 05:20:01;;;;;;;;;;;;;;;29.61;47.71;99095.53;2100872;28;20170;-72
2022/07/18 05:21:01;;;;;;;;;;;;;;;29.61;47.65;99100.13;2101439;28;19962;-70
2022/07/18 05:22:03;;;;;;;;;;;;;;;29.61;47.66;99111.06;2101346;28;20014;-72